Time;durP1;ratioP1;P1;durP2;ratioP2;P2;SDS_P1;SDS_P2;PMS_P1;PMS_P2;Temp;Humidity;BMP_temperature;BMP_pressure;BME280_temperature;BME280_humidity;BME280_pressure;Samples;Min_cycle;Max_cycle;Signal;HPM_P1;HPM_P2
2022/10/24 00:01:13;;;;;;;1.93;0.30;;;16.30;99.90;;;;;;5136546;27;20489;-87
2022/10/24 00:03:40;;;;;;;0.40;0.37;;;16.30;99.90;;;;;;5136659;27;20443;-86
2022/10/24 00:06:10;;;;;;;1.53;1.43;;;16.20;99.90;;;;;;5136721;27;20454;-87
2022/10/24 00:08:38;;;;;;;0.30;0.30;;;16.20;99.90;;;;;;5136608;27;20439;-87
2022/10/24 00:11:10;;;;;;;0.50;0.40;;;16.20;99.90;;;;;;5136456;27;20471;-87
2022/10/24 00:13:37;;;;;;;0.60;0.40;;;16.10;99.90;;;;;;5136641;27;20437;-87
2022/10/24 00:16:04;;;;;;;0.97;0.40;;;16.10;99.90;;;;;;5136247;27;20490;-87
2022/10/24 00:18:32;;;;;;;0.50;0.30;;;16.10;99.90;;;;;;5136447;27;20446;-87
2022/10/24 00:20:59;;;;;;;1.63;0.50;;;16.00;99.90;;;;;;5136371;27;20467;-87
2022/10/24 00:23:26;;;;;;;0.30;0.30;;;16.00;99.90;;;;;;5136359;27;20913;-87
2022/10/24 00:25:53;;;;;;;1.63;0.60;;;15.90;99.90;;;;;;5136435;27;20439;-87
2022/10/24 00:28:20;;;;;;;9.63;0.40;;;15.90;99.90;;;;;;5142341;27;20472;-87
2022/10/24 00:30:51;;;;;;;0.70;0.40;;;15.90;99.90;;;;;;5135887;27;20981;-87
2022/10/24 00:33:18;;;;;;;2.30;0.40;;;15.80;99.90;;;;;;5136268;27;20754;-87
2022/10/24 00:35:46;;;;;;;0.40;0.30;;;15.80;99.90;;;;;;5136393;27;20442;-87
2022/10/24 00:38:13;;;;;;;0.80;0.53;;;15.80;99.90;;;;;;5135934;27;20443;-87
2022/10/24 00:40:40;;;;;;;0.40;0.37;;;15.80;99.90;;;;;;5135879;27;20471;-87
2022/10/24 00:43:14;;;;;;;0.40;0.30;;;15.80;99.90;;;;;;5135569;27;20486;-87
2022/10/24 00:45:45;;;;;;;0.73;0.40;;;15.70;99.90;;;;;;5135608;27;20431;-87
2022/10/24 00:48:20;;;;;;;0.40;0.40;;;15.70;99.90;;;;;;5135912;27;20438;-87
2022/10/24 00:50:51;;;;;;;0.60;0.30;;;15.70;99.90;;;;;;5135859;27;20470;-87
2022/10/24 00:53:19;;;;;;;2.87;0.47;;;15.70;99.90;;;;;;5135490;27;20903;-86
2022/10/24 00:55:49;;;;;;;1.93;0.57;;;15.70;99.90;;;;;;5135821;27;20953;-87
2022/10/24 00:58:17;;;;;;;0.50;0.40;;;15.70;99.90;;;;;;5135573;27;20451;-87
2022/10/24 01:00:44;;;;;;;2.67;0.40;;;15.70;99.90;;;;;;5135601;27;20462;-87
2022/10/24 01:03:12;;;;;;;0.67;0.50;;;15.70;99.90;;;;;;5135491;27;20475;-87
2022/10/24 01:05:55;;;;;;;0.30;0.30;;;15.80;99.90;;;;;;5135500;27;20473;-87
2022/10/24 01:08:32;;;;;;;2.60;0.30;;;15.80;99.90;;;;;;5139929;27;20435;-87
2022/10/24 01:11:08;;;;;;;0.40;0.40;;;15.80;99.90;;;;;;5135534;27;20443;-87
2022/10/24 01:13:44;;;;;;;0.50;0.30;;;15.80;99.90;;;;;;5135246;27;20932;-87
2022/10/24 01:16:14;;;;;;;0.40;0.33;;;15.80;99.90;;;;;;5135074;27;20470;-87
2022/10/24 01:18:48;;;;;;;9.53;0.50;;;15.80;99.90;;;;;;5135801;27;20423;-87
2022/10/24 01:21:28;;;;;;;1.80;0.40;;;15.80;99.90;;;;;;5135041;27;20455;-86
2022/10/24 01:24:08;;;;;;;0.40;0.40;;;15.80;99.90;;;;;;5135692;27;20431;-87
2022/10/24 01:27:08;;;;;;;0.40;0.40;;;15.80;99.90;;;;;;5135082;27;20427;-87
2022/10/24 01:29:57;;;;;;;0.40;0.30;;;15.80;99.90;;;;;;5135432;27;20427;-87
2022/10/24 01:32:33;;;;;;;0.80;0.40;;;15.80;99.90;;;;;;5134888;27;20459;-87
2022/10/24 01:35:07;;;;;;;0.57;0.33;;;15.80;99.90;;;;;;5135508;27;20450;-87
2022/10/24 01:37:39;;;;;;;0.40;0.30;;;15.80;99.90;;;;;;5135072;27;20431;-87
2022/10/24 01:40:11;;;;;;;1.23;0.40;;;15.80;99.90;;;;;;5134775;27;20906;-87
2022/10/24 01:42:39;;;;;;;0.40;0.30;;;15.80;99.90;;;;;;5135013;27;20463;-87
2022/10/24 01:45:13;;;;;;;0.30;0.30;;;15.80;99.90;;;;;;5134586;27;20447;-87
2022/10/24 01:47:44;;;;;;;0.40;0.40;;;15.80;99.90;;;;;;5134893;27;20435;-87
2022/10/24 01:50:13;;;;;;;1.53;0.50;;;15.70;99.90;;;;;;5134861;27;20426;-87
2022/10/24 01:52:44;;;;;;;2.10;0.30;;;15.70;99.90;;;;;;5134866;28;20442;-86
2022/10/24 01:55:12;;;;;;;0.50;0.40;;;15.70;99.90;;;;;;5135004;28;20433;-87
2022/10/24 01:57:39;;;;;;;4.83;0.40;;;15.80;99.90;;;;;;5135024;27;20438;-87
2022/10/24 02:00:15;;;;;;;2.03;0.47;;;15.80;99.90;;;;;;5138946;27;20454;-87
2022/10/24 02:02:45;;;;;;;0.80;0.30;;;15.80;99.90;;;;;;5138596;27;20469;-87
2022/10/24 02:05:16;;;;;;;1.13;0.40;;;15.80;99.90;;;;;;5138935;27;21003;-87
2022/10/24 02:07:47;;;;;;;0.30;0.30;;;15.90;99.90;;;;;;5139159;27;20438;-86
2022/10/24 02:10:19;;;;;;;0.57;0.40;;;15.90;99.90;;;;;;5138901;27;20794;-86
2022/10/24 02:12:50;;;;;;;3.03;0.40;;;15.90;99.90;;;;;;5138810;27;20427;-86
2022/10/24 02:15:22;;;;;;;0.60;0.40;;;15.90;99.90;;;;;;5138696;27;20411;-86
2022/10/24 02:17:50;;;;;;;0.40;0.30;;;15.90;99.90;;;;;;5138286;27;20478;-87
2022/10/24 02:20:17;;;;;;;0.50;0.50;;;15.90;99.90;;;;;;5138891;27;20454;-87
2022/10/24 02:22:49;;;;;;;0.40;0.30;;;15.90;99.90;;;;;;5138294;27;20995;-87
2022/10/24 02:25:19;;;;;;;0.40;0.30;;;16.00;99.90;;;;;;5138668;27;20909;-87
2022/10/24 02:27:52;;;;;;;0.47;0.40;;;16.00;99.90;;;;;;5138585;27;20446;-86
2022/10/24 02:30:22;;;;;;;1.27;0.40;;;15.90;99.90;;;;;;5138178;27;20897;-87
2022/10/24 02:32:52;;;;;;;0.83;0.50;;;15.90;99.90;;;;;;5138246;27;20925;-87
2022/10/24 02:35:22;;;;;;;0.60;0.50;;;15.90;99.90;;;;;;5138591;27;20451;-87
2022/10/24 02:37:52;;;;;;;4.83;0.60;;;16.00;99.90;;;;;;5138647;27;20419;-88
2022/10/24 02:40:21;;;;;;;0.50;0.43;;;16.00;99.90;;;;;;5138145;27;20463;-87
2022/10/24 02:42:52;;;;;;;0.60;0.40;;;16.00;99.90;;;;;;5138312;27;20478;-87
2022/10/24 02:45:22;;;;;;;0.40;0.37;;;16.00;99.90;;;;;;5138280;27;20426;-87
2022/10/24 02:47:52;;;;;;;2.93;0.87;;;16.00;99.90;;;;;;5138271;27;20922;-86
2022/10/24 02:50:19;;;;;;;1.53;0.50;;;16.00;99.90;;;;;;5138266;27;20937;-87
2022/10/24 02:52:46;;;;;;;0.40;0.40;;;15.90;99.90;;;;;;5137809;27;20434;-85
2022/10/24 02:55:13;;;;;;;1.97;1.00;;;15.90;99.90;;;;;;5138118;27;20451;-87
2022/10/24 02:57:40;;;;;;;2.37;0.40;;;15.80;99.90;;;;;;5138076;27;20443;-85
2022/10/24 03:00:08;;;;;;;0.97;0.40;;;15.90;99.90;;;;;;5137971;27;20443;-86
2022/10/24 03:02:36;;;;;;;0.87;0.50;;;15.90;99.90;;;;;;5137842;27;20997;-87
2022/10/24 03:05:03;;;;;;;0.40;0.40;;;15.90;99.90;;;;;;5137520;27;20439;-87
2022/10/24 03:07:30;;;;;;;1.73;0.50;;;15.90;99.90;;;;;;5137856;27;20446;-87
2022/10/24 03:09:57;;;;;;;2.83;0.60;;;15.90;99.90;;;;;;5137675;27;20450;-87
2022/10/24 03:12:25;;;;;;;0.40;0.40;;;15.90;99.90;;;;;;5137317;27;20463;-87
2022/10/24 03:14:52;;;;;;;0.60;0.40;;;15.90;99.90;;;;;;5138092;27;20439;-87
2022/10/24 03:17:18;;;;;;;1.37;0.50;;;15.80;99.90;;;;;;5137599;27;20489;-87
2022/10/24 03:19:47;;;;;;;2.20;1.30;;;15.80;99.90;;;;;;5137540;27;20453;-89
2022/10/24 03:22:13;;;;;;;2.20;1.30;;;15.80;99.90;;;;;;5137377;27;20467;-87
2022/10/24 03:24:40;;;;;;;1.33;0.70;;;15.80;99.90;;;;;;5137575;27;20449;-86
2022/10/24 03:27:07;;;;;;;0.57;0.57;;;15.80;99.90;;;;;;5137330;27;20455;-87
2022/10/24 03:29:34;;;;;;;1.33;0.40;;;15.70;99.90;;;;;;5137292;27;21010;-87
2022/10/24 03:32:01;;;;;;;0.70;0.50;;;15.70;99.90;;;;;;5137150;27;20447;-86
2022/10/24 03:34:27;;;;;;;2.73;0.40;;;15.70;99.90;;;;;;5137301;27;20454;-87
2022/10/24 03:36:55;;;;;;;3.70;0.30;;;15.80;99.90;;;;;;5137198;27;20443;-87
2022/10/24 03:39:22;;;;;;;3.33;1.17;;;15.80;99.90;;;;;;5136801;27;20485;-87
2022/10/24 03:41:49;;;;;;;0.43;0.30;;;15.70;99.90;;;;;;5137116;27;20832;-87
2022/10/24 03:44:16;;;;;;;0.50;0.47;;;15.80;99.90;;;;;;5136894;27;20482;-87
2022/10/24 03:46:42;;;;;;;0.50;0.43;;;15.80;99.90;;;;;;5137243;27;20559;-87
2022/10/24 03:49:09;;;;;;;1.57;0.70;;;15.70;99.90;;;;;;5137145;27;20450;-87
2022/10/24 03:51:36;;;;;;;0.43;0.43;;;15.70;99.90;;;;;;5137119;27;20474;-88
2022/10/24 03:54:04;;;;;;;0.73;0.43;;;15.70;99.90;;;;;;5136943;27;20439;-90
2022/10/24 03:56:31;;;;;;;0.83;0.40;;;15.70;99.90;;;;;;5136580;27;20447;-88
2022/10/24 03:58:58;;;;;;;2.10;0.40;;;15.80;99.90;;;;;;5136946;27;20450;-88
2022/10/24 04:01:24;;;;;;;1.67;0.93;;;15.70;99.90;;;;;;5137475;27;20540;-87
2022/10/24 04:03:51;;;;;;;2.33;0.67;;;15.80;99.90;;;;;;5137500;27;20482;-87
2022/10/24 04:06:18;;;;;;;0.40;0.40;;;15.80;99.90;;;;;;5136540;27;20960;-87
2022/10/24 04:08:45;;;;;;;1.57;1.27;;;15.80;99.90;;;;;;5136702;27;20450;-87
2022/10/24 04:11:13;;;;;;;8.13;0.50;;;15.90;99.90;;;;;;5136466;27;20473;-87
2022/10/24 04:13:40;;;;;;;0.50;0.40;;;15.90;99.90;;;;;;5136397;27;20953;-87
2022/10/24 04:16:08;;;;;;;1.00;0.40;;;15.90;99.90;;;;;;5136181;27;20531;-87
2022/10/24 04:18:35;;;;;;;0.67;0.43;;;15.80;99.90;;;;;;5136550;27;20424;-87
2022/10/24 04:21:02;;;;;;;0.57;0.50;;;15.80;99.90;;;;;;5135683;27;20462;-87
2022/10/24 04:23:33;;;;;;;0.40;0.30;;;15.80;99.90;;;;;;5136818;27;20482;-88
2022/10/24 04:26:00;;;;;;;2.00;0.40;;;15.90;99.90;;;;;;5136388;27;20940;-87
2022/10/24 04:28:28;;;;;;;0.40;0.40;;;15.80;99.90;;;;;;5136351;27;20443;-87
2022/10/24 04:30:55;;;;;;;0.93;0.60;;;15.90;99.90;;;;;;5135913;27;20506;-87
2022/10/24 04:33:22;;;;;;;0.70;0.40;;;15.80;99.90;;;;;;5136161;27;20443;-87
2022/10/24 04:35:50;;;;;;;1.10;0.40;;;15.80;99.90;;;;;;5136148;27;20443;-86
2022/10/24 04:38:18;;;;;;;0.50;0.33;;;15.80;99.90;;;;;;5135869;27;20953;-87
2022/10/24 04:40:46;;;;;;;2.10;0.53;;;15.80;99.90;;;;;;5135735;27;20961;-86
2022/10/24 04:43:13;;;;;;;0.50;0.50;;;15.80;99.90;;;;;;5136693;27;20536;-88
2022/10/24 04:45:41;;;;;;;1.27;0.60;;;15.80;99.90;;;;;;5136090;27;20451;-86
2022/10/24 04:48:08;;;;;;;0.70;0.50;;;15.80;99.90;;;;;;5135987;27;20443;-89
2022/10/24 04:50:35;;;;;;;6.73;0.63;;;15.80;99.90;;;;;;5135958;27;20463;-87
2022/10/24 04:53:01;;;;;;;1.00;0.40;;;15.80;99.90;;;;;;5136310;27;20793;-89
2022/10/24 04:55:29;;;;;;;0.40;0.30;;;15.80;99.90;;;;;;5135642;27;20446;-87
2022/10/24 04:57:55;;;;;;;4.97;0.80;;;15.80;99.90;;;;;;5135735;27;20458;-87
2022/10/24 05:00:22;;;;;;;1.57;0.57;;;15.80;99.90;;;;;;5135597;27;20463;-88
2022/10/24 05:02:50;;;;;;;0.60;0.40;;;15.90;99.90;;;;;;5135749;27;20996;-87
2022/10/24 05:05:17;;;;;;;0.40;0.30;;;15.90;99.90;;;;;;5135737;27;20450;-87
2022/10/24 05:07:45;;;;;;;0.40;0.33;;;15.90;99.90;;;;;;5135295;27;20960;-87
2022/10/24 05:10:12;;;;;;;0.40;0.40;;;15.90;99.90;;;;;;5135847;27;20443;-87
2022/10/24 05:12:40;;;;;;;0.60;0.30;;;15.90;99.90;;;;;;5135632;27;20439;-89
2022/10/24 05:15:08;;;;;;;2.10;0.50;;;16.00;99.90;;;;;;5135470;27;20515;-87
2022/10/24 05:17:35;;;;;;;0.50;0.40;;;16.00;99.90;;;;;;5135143;27;20470;-90
2022/10/24 05:20:04;;;;;;;0.93;0.50;;;16.00;99.90;;;;;;5135302;27;20447;-88
2022/10/24 05:22:31;;;;;;;1.30;0.50;;;16.00;99.90;;;;;;5135549;27;20965;-88
2022/10/24 05:24:58;;;;;;;0.83;0.50;;;16.00;99.90;;;;;;5135449;27;21030;-88
2022/10/24 05:27:24;;;;;;;2.00;0.87;;;15.90;99.90;;;;;;5135506;27;20450;-87
2022/10/24 05:29:52;;;;;;;1.20;0.70;;;15.90;99.90;;;;;;5135107;27;20428;-88
2022/10/24 05:32:19;;;;;;;1.37;0.40;;;15.80;99.90;;;;;;5134439;27;20478;-87
2022/10/24 05:34:46;;;;;;;4.63;0.60;;;15.80;99.90;;;;;;5134569;27;20960;-87
2022/10/24 05:37:14;;;;;;;1.53;0.40;;;15.80;99.90;;;;;;5135098;27;20450;-87
2022/10/24 05:39:41;;;;;;;0.40;0.33;;;15.70;99.90;;;;;;5135332;27;20451;-88
2022/10/24 05:42:09;;;;;;;1.23;0.50;;;15.70;99.90;;;;;;5134962;27;20458;-87
2022/10/24 05:44:37;;;;;;;0.40;0.30;;;15.70;99.90;;;;;;5135055;27;20470;-88
2022/10/24 05:47:04;;;;;;;2.00;0.40;;;15.70;99.90;;;;;;5135177;27;20458;-88
2022/10/24 05:49:31;;;;;;;0.60;0.60;;;15.60;99.90;;;;;;5135212;27;20964;-88
2022/10/24 05:51:58;;;;;;;0.40;0.40;;;15.70;99.90;;;;;;5136694;27;20474;-87
2022/10/24 05:54:26;;;;;;;0.30;0.30;;;15.70;99.90;;;;;;5143081;28;20434;-87
2022/10/24 05:56:52;;;;;;;1.63;0.40;;;15.60;99.90;;;;;;5135781;27;20451;-87
2022/10/24 05:59:19;;;;;;;1.13;0.50;;;15.70;99.90;;;;;;5135314;28;20453;-88
2022/10/24 06:01:46;;;;;;;1.10;0.30;;;15.80;99.90;;;;;;5136069;28;20473;-88
2022/10/24 06:04:13;;;;;;;0.40;0.40;;;15.80;99.90;;;;;;5134814;28;20482;-88
2022/10/24 06:06:41;;;;;;;1.07;0.30;;;15.80;99.90;;;;;;5134706;28;20443;-88
2022/10/24 06:09:07;;;;;;;3.03;0.30;;;15.80;99.90;;;;;;5134820;28;20473;-87
2022/10/24 06:11:35;;;;;;;0.60;0.40;;;15.80;99.90;;;;;;5134681;28;20476;-85
2022/10/24 06:14:03;;;;;;;0.67;0.67;;;15.70;99.90;;;;;;5134464;28;20449;-86
2022/10/24 06:16:29;;;;;;;0.60;0.60;;;15.60;99.90;;;;;;5134229;28;20489;-85
2022/10/24 06:18:57;;;;;;;4.53;0.50;;;15.50;99.90;;;;;;5134380;28;20458;-85
2022/10/24 06:21:24;;;;;;;0.40;0.40;;;15.30;99.90;;;;;;5134326;28;20466;-85
2022/10/24 06:23:51;;;;;;;0.80;0.40;;;15.20;99.90;;;;;;5134236;28;20491;-85
2022/10/24 06:26:18;;;;;;;0.50;0.50;;;15.10;99.90;;;;;;5134299;28;20929;-85
2022/10/24 06:28:46;;;;;;;0.40;0.30;;;15.10;99.90;;;;;;5134344;28;20446;-85
2022/10/24 06:31:13;;;;;;;0.43;0.43;;;15.00;99.90;;;;;;5134225;27;20467;-85
2022/10/24 06:33:40;;;;;;;2.37;0.40;;;15.00;99.90;;;;;;5134226;28;20537;-84
2022/10/24 06:36:08;;;;;;;0.73;0.40;;;15.00;99.90;;;;;;5133977;28;20952;-85
2022/10/24 06:38:36;;;;;;;3.23;0.57;;;15.10;99.90;;;;;;5134337;28;20488;-85
2022/10/24 06:41:06;;;;;;;1.43;0.40;;;15.10;99.90;;;;;;5134423;28;20469;-85
2022/10/24 06:43:33;;;;;;;0.40;0.40;;;15.10;99.90;;;;;;5133772;28;20467;-85
2022/10/24 06:46:05;;;;;;;0.40;0.30;;;15.10;99.90;;;;;;5137437;27;20446;-85
2022/10/24 06:48:32;;;;;;;1.80;0.40;;;15.10;99.90;;;;;;5138042;27;20487;-87
2022/10/24 06:50:59;;;;;;;0.50;0.50;;;15.20;99.90;;;;;;5137945;27;20807;-86
2022/10/24 06:53:26;;;;;;;0.40;0.40;;;15.20;99.90;;;;;;5138012;27;20967;-86
2022/10/24 06:55:52;;;;;;;0.80;0.40;;;15.20;99.90;;;;;;5137751;27;20450;-86
2022/10/24 06:58:19;;;;;;;1.00;0.60;;;15.20;99.90;;;;;;5137758;27;20446;-85
2022/10/24 07:00:46;;;;;;;0.60;0.30;;;15.30;99.90;;;;;;5137308;27;20477;-85
2022/10/24 07:03:15;;;;;;;0.43;0.40;;;15.30;99.90;;;;;;5137337;27;20450;-85
2022/10/24 07:05:42;;;;;;;2.97;0.53;;;15.30;99.90;;;;;;5137590;27;20439;-85
2022/10/24 07:08:09;;;;;;;0.67;0.40;;;15.40;99.90;;;;;;5137833;27;20446;-85
2022/10/24 07:10:36;;;;;;;0.30;0.30;;;15.40;99.90;;;;;;5137405;27;20467;-85
2022/10/24 07:13:03;;;;;;;4.17;0.40;;;15.40;99.90;;;;;;5137562;27;20457;-85
2022/10/24 07:15:30;;;;;;;0.50;0.40;;;15.50;99.90;;;;;;5137159;27;20804;-84
2022/10/24 07:17:56;;;;;;;0.93;0.40;;;15.40;99.90;;;;;;5137256;27;20454;-85
2022/10/24 07:20:24;;;;;;;0.83;0.50;;;15.40;99.90;;;;;;5136885;27;20472;-85
2022/10/24 07:22:51;;;;;;;0.40;0.40;;;15.40;99.90;;;;;;5137220;27;20438;-85
2022/10/24 07:25:18;;;;;;;0.80;0.30;;;15.40;99.90;;;;;;5137052;27;20482;-84
2022/10/24 07:27:45;;;;;;;0.50;0.40;;;15.50;99.90;;;;;;5137105;27;20438;-85
2022/10/24 07:30:17;;;;;;;3.17;0.67;;;15.50;99.90;;;;;;5137026;27;20455;-85
2022/10/24 07:32:43;;;;;;;4.50;0.60;;;15.50;99.90;;;;;;5136949;27;20491;-85
2022/10/24 07:35:12;;;;;;;0.67;0.37;;;15.50;99.90;;;;;;5137176;27;20447;-85
2022/10/24 07:37:40;;;;;;;3.90;0.60;;;15.50;99.90;;;;;;5136959;27;20447;-85
2022/10/24 07:40:08;;;;;;;1.70;0.40;;;15.50;99.90;;;;;;5136808;27;20450;-85
2022/10/24 07:42:35;;;;;;;1.13;0.40;;;15.50;99.90;;;;;;5136879;27;20431;-85
2022/10/24 07:45:03;;;;;;;0.40;0.40;;;15.40;99.90;;;;;;5136404;27;20486;-85
2022/10/24 07:47:30;;;;;;;1.50;0.40;;;15.40;99.90;;;;;;5136715;27;20542;-83
2022/10/24 07:49:56;;;;;;;0.50;0.40;;;15.40;99.90;;;;;;5136345;27;20929;-83
2022/10/24 07:52:23;;;;;;;1.23;0.50;;;15.30;99.90;;;;;;5136404;27;20467;-84
2022/10/24 07:54:53;;;;;;;0.30;0.30;;;15.20;99.90;;;;;;5136273;27;20446;-83
2022/10/24 07:57:20;;;;;;;0.40;0.40;;;15.10;99.90;;;;;;5135686;27;20443;-87
2022/10/24 07:59:46;;;;;;;0.80;0.50;;;15.10;99.90;;;;;;5136534;27;20455;-84
2022/10/24 08:02:14;;;;;;;0.40;0.40;;;15.00;99.90;;;;;;5135981;27;20833;-84
2022/10/24 08:04:41;;;;;;;0.93;0.50;;;14.90;99.90;;;;;;5135883;27;21005;-84
2022/10/24 08:07:11;;;;;;;0.50;0.30;;;14.80;99.90;;;;;;5136521;27;20451;-85
2022/10/24 08:09:39;;;;;;;0.40;0.30;;;14.80;99.90;;;;;;5136913;27;20438;-89
2022/10/24 08:12:07;;;;;;;1.63;0.40;;;14.70;99.90;;;;;;5136113;27;20471;-82
2022/10/24 08:14:34;;;;;;;3.93;0.40;;;14.60;99.90;;;;;;5136256;27;20851;-83
2022/10/24 08:17:01;;;;;;;0.93;0.40;;;14.50;99.90;;;;;;5136103;27;20478;-86
2022/10/24 08:19:27;;;;;;;0.40;0.30;;;14.40;99.90;;;;;;5135735;27;20454;-84
2022/10/24 08:21:54;;;;;;;0.30;0.30;;;14.30;99.90;;;;;;5135738;27;20969;-84
2022/10/24 08:24:21;;;;;;;0.40;0.40;;;14.40;99.90;;;;;;5135905;27;20482;-84
2022/10/24 08:26:48;;;;;;;0.60;0.60;;;14.50;99.90;;;;;;5135661;27;20446;-85
2022/10/24 08:29:21;;;;;;;0.40;0.40;;;14.50;99.90;;;;;;5135688;27;20450;-84
2022/10/24 08:31:50;;;;;;;0.40;0.30;;;14.60;99.90;;;;;;5135891;27;20520;-84
2022/10/24 08:34:17;;;;;;;0.50;0.50;;;14.70;99.90;;;;;;5135792;27;20439;-84
2022/10/24 08:36:44;;;;;;;0.40;0.30;;;14.70;99.90;;;;;;5135717;27;20458;-84
2022/10/24 08:39:11;;;;;;;0.43;0.43;;;14.80;99.90;;;;;;5135572;27;20457;-83
2022/10/24 08:41:42;;;;;;;0.73;0.40;;;14.80;99.90;;;;;;5135467;27;20490;-83
2022/10/24 08:44:20;;;;;;;0.60;0.47;;;14.80;99.90;;;;;;5135773;27;20506;-84
2022/10/24 08:46:52;;;;;;;0.80;0.50;;;14.80;99.90;;;;;;5135568;27;20430;-85
2022/10/24 08:49:27;;;;;;;0.50;0.50;;;14.80;99.90;;;;;;5135497;27;20438;-84
2022/10/24 08:51:58;;;;;;;0.83;0.40;;;14.80;99.90;;;;;;5135383;27;20471;-85
2022/10/24 08:54:30;;;;;;;0.50;0.40;;;14.80;99.90;;;;;;5136058;27;20423;-85
2022/10/24 08:56:58;;;;;;;1.20;0.33;;;14.80;99.90;;;;;;5135149;27;20910;-86
2022/10/24 08:59:30;;;;;;;0.80;0.50;;;14.80;99.90;;;;;;5135289;27;20447;-85
2022/10/24 09:02:01;;;;;;;0.50;0.40;;;14.80;99.90;;;;;;5135237;27;20455;-86
2022/10/24 09:04:34;;;;;;;0.50;0.40;;;14.80;99.90;;;;;;5135504;27;20462;-86
2022/10/24 09:07:02;;;;;;;0.50;0.40;;;14.90;99.90;;;;;;5135132;27;20487;-86
2022/10/24 09:09:33;;;;;;;1.60;0.57;;;14.90;99.90;;;;;;5135083;27;20443;-85
2022/10/24 09:12:02;;;;;;;0.30;0.30;;;15.00;99.90;;;;;;5135131;27;20467;-85
2022/10/24 09:14:32;;;;;;;0.50;0.50;;;15.00;99.90;;;;;;5135105;27;20443;-86
2022/10/24 09:17:02;;;;;;;0.60;0.40;;;15.10;99.90;;;;;;5134778;27;20849;-86
2022/10/24 09:19:31;;;;;;;0.40;0.40;;;15.10;99.90;;;;;;5135178;27;20435;-86
2022/10/24 09:21:59;;;;;;;0.40;0.40;;;15.10;99.90;;;;;;5135437;27;20467;-87
2022/10/24 09:24:39;;;;;;;0.40;0.30;;;15.20;99.90;;;;;;5134963;27;20474;-86
2022/10/24 09:27:11;;;;;;;0.50;0.40;;;15.20;99.90;;;;;;5135142;27;20936;-83
2022/10/24 09:29:40;;;;;;;0.40;0.30;;;15.20;99.90;;;;;;5134954;27;20431;-83
2022/10/24 09:32:15;;;;;;;1.27;0.60;;;15.20;99.90;;;;;;5134541;27;20473;-83
2022/10/24 09:34:42;;;;;;;0.30;0.30;;;15.20;99.90;;;;;;5134685;27;20797;-83
2022/10/24 09:37:28;;;;;;;0.60;0.30;;;15.20;99.90;;;;;;5134534;27;20447;-80
2022/10/24 09:40:07;;;;;;;0.67;0.67;;;15.20;99.90;;;;;;5134170;27;20809;-83
2022/10/24 09:42:34;;;;;;;1.37;0.57;;;15.20;99.90;;;;;;5134650;27;20407;-83
2022/10/24 09:45:27;;;;;;;0.40;0.30;;;15.20;99.90;;;;;;5134461;27;20494;-84
2022/10/24 09:47:56;;;;;;;0.40;0.33;;;15.20;99.90;;;;;;5129040;27;20458;-84
2022/10/24 09:50:24;;;;;;;0.60;0.50;;;15.20;99.90;;;;;;5134466;27;20454;-84
2022/10/24 09:52:52;;;;;;;4.83;0.40;;;15.20;99.90;;;;;;5134458;27;20461;-84
2022/10/24 09:55:21;;;;;;;2.70;0.40;;;15.30;99.90;;;;;;5134468;28;20445;-85
2022/10/24 09:57:52;;;;;;;0.40;0.30;;;15.30;99.90;;;;;;5134277;28;20458;-83
2022/10/24 10:00:26;;;;;;;0.40;0.30;;;15.30;99.90;;;;;;5135395;28;20466;-84
2022/10/24 10:02:58;;;;;;;1.30;0.50;;;15.30;99.90;;;;;;5134085;28;20411;-84
2022/10/24 10:05:25;;;;;;;0.57;0.50;;;15.40;99.90;;;;;;5134244;28;20915;-84
2022/10/24 10:07:52;;;;;;;0.50;0.40;;;15.50;99.90;;;;;;5134370;28;20450;-84
2022/10/24 10:10:27;;;;;;;2.20;0.30;;;15.50;99.90;;;;;;5133865;28;20929;-83
2022/10/24 10:13:01;;;;;;;0.40;0.37;;;15.60;99.90;;;;;;5134312;28;20897;-82
2022/10/24 10:15:31;;;;;;;3.60;0.40;;;15.60;99.90;;;;;;5134043;28;20801;-82
2022/10/24 10:18:02;;;;;;;0.30;0.30;;;15.60;99.90;;;;;;5134303;28;20423;-83
2022/10/24 10:20:32;;;;;;;0.77;0.33;;;15.50;99.90;;;;;;5136880;27;20458;-83
2022/10/24 10:23:17;;;;;;;0.83;0.60;;;15.50;99.90;;;;;;5138066;27;20435;-83
2022/10/24 10:25:44;;;;;;;0.30;0.30;;;15.50;99.90;;;;;;5138217;27;20474;-83
2022/10/24 10:28:20;;;;;;;1.43;0.50;;;15.60;99.90;;;;;;5137895;27;20804;-82
2022/10/24 10:30:59;;;;;;;0.60;0.40;;;15.60;99.90;;;;;;5137797;27;20689;-83
2022/10/24 10:33:35;;;;;;;0.77;0.30;;;15.80;99.90;;;;;;5138137;27;20407;-83
2022/10/24 10:36:09;;;;;;;0.40;0.30;;;15.80;99.90;;;;;;5138211;27;20431;-82
2022/10/24 10:38:43;;;;;;;0.40;0.40;;;15.80;99.90;;;;;;5137993;27;20434;-83
2022/10/24 10:41:18;;;;;;;0.33;0.23;;;15.80;99.90;;;;;;5137638;27;20462;-83
2022/10/24 10:43:54;;;;;;;1.10;0.40;;;15.90;99.90;;;;;;5137598;27;20901;-82
2022/10/24 10:46:31;;;;;;;6.53;0.40;;;16.00;99.90;;;;;;5137793;27;20938;-83
2022/10/24 10:49:05;;;;;;;0.43;0.30;;;16.00;99.90;;;;;;5138040;27;20427;-82
2022/10/24 10:51:42;;;;;;;0.63;0.40;;;15.90;99.90;;;;;;5137676;27;20462;-83
2022/10/24 10:54:22;;;;;;;0.40;0.30;;;15.90;99.90;;;;;;5137697;27;20430;-82
2022/10/24 10:56:52;;;;;;;3.07;0.33;;;15.80;99.90;;;;;;5137645;27;20435;-82
2022/10/24 10:59:34;;;;;;;0.40;0.30;;;15.80;99.90;;;;;;5137518;27;20459;-82
2022/10/24 11:02:20;;;;;;;1.03;0.40;;;15.70;99.90;;;;;;5137524;27;20470;-82
2022/10/24 11:04:53;;;;;;;0.40;0.30;;;15.60;99.90;;;;;;5137198;27;20973;-81
2022/10/24 11:07:25;;;;;;;0.40;0.30;;;15.60;99.90;;;;;;5137595;27;20491;-82
2022/10/24 11:09:56;;;;;;;1.17;0.40;;;15.60;99.90;;;;;;5137343;27;20427;-82
2022/10/24 11:12:26;;;;;;;1.13;0.30;;;15.70;99.90;;;;;;5137283;27;20973;-82
2022/10/24 11:15:01;;;;;;;1.33;0.30;;;15.70;99.90;;;;;;5137413;27;20434;-83
2022/10/24 11:17:37;;;;;;;0.50;0.30;;;15.60;99.90;;;;;;5136892;27;20482;-82
2022/10/24 11:20:13;;;;;;;0.40;0.40;;;15.60;99.90;;;;;;5136843;27;20916;-82
2022/10/24 11:22:44;;;;;;;0.57;0.37;;;15.70;99.90;;;;;;5136901;27;20932;-82
2022/10/24 11:25:23;;;;;;;0.30;0.20;;;15.70;99.90;;;;;;5136692;27;20478;-82
2022/10/24 11:27:54;;;;;;;0.40;0.30;;;15.60;99.90;;;;;;5137085;27;20430;-82
2022/10/24 11:30:30;;;;;;;0.63;0.30;;;15.70;99.90;;;;;;5136025;27;20907;-82
2022/10/24 11:33:06;;;;;;;0.53;0.33;;;15.60;99.90;;;;;;5136179;27;21009;-82
2022/10/24 11:35:36;;;;;;;0.40;0.30;;;15.60;99.90;;;;;;5136952;27;20427;-83
2022/10/24 11:38:09;;;;;;;0.40;0.30;;;15.70;99.90;;;;;;5137144;27;20435;-83
2022/10/24 11:40:39;;;;;;;0.40;0.30;;;15.80;99.90;;;;;;5136745;27;20463;-82
2022/10/24 11:43:16;;;;;;;0.40;0.30;;;15.80;99.90;;;;;;5136784;27;20454;-83
2022/10/24 11:45:48;;;;;;;0.30;0.30;;;15.80;99.90;;;;;;5137451;27;20458;-84
2022/10/24 11:48:23;;;;;;;0.40;0.30;;;15.80;99.90;;;;;;5136979;27;20427;-84
2022/10/24 11:50:54;;;;;;;0.97;0.40;;;15.80;99.90;;;;;;5136581;27;20489;-83
2022/10/24 11:53:47;;;;;;;0.40;0.40;;;15.90;99.90;;;;;;5136419;27;20415;-83
2022/10/24 11:56:17;;;;;;;0.47;0.47;;;15.80;99.90;;;;;;5136265;27;20427;-84
2022/10/24 11:58:52;;;;;;;0.30;0.30;;;15.90;99.90;;;;;;5136499;27;20433;-83
2022/10/24 12:01:40;;;;;;;0.30;0.30;;;15.90;99.90;;;;;;5136009;27;20519;-82
2022/10/24 12:04:33;;;;;;;0.40;0.30;;;15.80;99.90;;;;;;5136106;27;20434;-85
2022/10/24 12:07:29;;;;;;;0.40;0.30;;;16.00;99.90;;;;;;5136277;27;20469;-84
2022/10/24 12:10:23;;;;;;;0.40;0.30;;;16.00;99.90;;;;;;5136313;27;20958;-84
2022/10/24 12:13:12;;;;;;;0.33;0.30;;;16.10;99.90;;;;;;5136264;27;20430;-83
2022/10/24 12:15:48;;;;;;;0.40;0.40;;;16.30;99.90;;;;;;5135957;27;20476;-83
2022/10/24 12:18:29;;;;;;;0.30;0.30;;;16.30;99.90;;;;;;5137097;27;20442;-83
2022/10/24 12:21:01;;;;;;;0.40;0.30;;;16.30;99.90;;;;;;5136279;27;20463;-83
2022/10/24 12:23:30;;;;;;;0.40;0.40;;;16.30;99.90;;;;;;5136567;27;20431;-84
2022/10/24 12:26:05;;;;;;;0.90;0.30;;;16.30;99.90;;;;;;5135853;27;20547;-83
2022/10/24 12:28:32;;;;;;;1.77;0.30;;;16.40;99.90;;;;;;5135835;27;20828;-84
2022/10/24 12:31:12;;;;;;;0.40;0.30;;;16.40;99.90;;;;;;5135733;27;20459;-83
2022/10/24 12:33:40;;;;;;;0.40;0.30;;;16.30;99.90;;;;;;5135465;27;20526;-83
2022/10/24 12:36:08;;;;;;;0.30;0.30;;;16.30;99.90;;;;;;5135413;27;20435;-83
2022/10/24 12:39:08;;;;;;;0.30;0.30;;;16.20;99.90;;;;;;5135720;27;20443;-83
2022/10/24 12:41:43;;;;;;;0.40;0.30;;;16.20;99.90;;;;;;5135163;27;21012;-83
2022/10/24 12:44:39;;;;;;;0.30;0.30;;;16.20;99.90;;;;;;5135744;27;20444;-83
2022/10/24 12:47:27;;;;;;;0.30;0.30;;;16.30;99.90;;;;;;5135531;27;20467;-83
2022/10/24 12:49:54;;;;;;;0.30;0.30;;;16.20;99.90;;;;;;5135429;27;20449;-82
2022/10/24 12:53:03;;;;;;;0.30;0.30;;;16.20;99.90;;;;;;5135294;27;20462;-82
2022/10/24 12:55:47;;;;;;;0.77;0.40;;;16.30;99.90;;;;;;5135395;27;20423;-84
2022/10/24 12:58:22;;;;;;;1.27;0.30;;;16.40;99.90;;;;;;5135119;27;20439;-83
2022/10/24 13:00:54;;;;;;;0.40;0.40;;;16.50;99.90;;;;;;5135163;27;20474;-83
2022/10/24 13:03:32;;;;;;;0.40;0.30;;;16.50;99.90;;;;;;5135339;27;20484;-83
2022/10/24 13:06:06;;;;;;;0.60;0.40;;;16.60;99.90;;;;;;5135118;27;20467;-82